Free Trial

This company has been marked as potentially delisted and may not be actively trading.

New York Mortgage Trust (NYMT) Institutional Ownership

New York Mortgage Trust logo

Institutional Ownership Changes (13F Filings) for New York Mortgage Trust (NASDAQ:NYMT)

Current
Institutional Ownership
Percentage
54.89%
Number of
Institutional Buyers
(last 12 months)
68
Total
Institutional Inflows
(last 12 months)
$30.54M
Number of
Institutional Sellers
(last 12 months)
42
Total
Institutional Outflows
(last 12 months)
$24.22M
Get NYMT Insider Trade Alerts

Want to know when executives and insiders are buying or selling New York Mortgage Trust stock? Sign up for InsiderTrades.com's daily newsletter to get the latest insider transactions delivered to your inbox daily.

SMS is currently available in Australia, Belgium, Canada, France, Germany, Ireland, Italy, New Zealand, the Netherlands, Singapore, South Africa, Spain, Switzerland, the United Kingdom, and the United States. By entering your phone number and clicking the sign-up button, you agree to receive periodic text messages from MarketBeat at the phone number you submitted, including texts that may be sent using an automatic telephone dialing system. Message and data rates may apply. Message frequency will vary. Messages will consist of stock alerts, news stories, and partner advertisements/offers. Consent is not a condition of the purchase of any goods or services. Text HELP for help/customer support. Unsubscribe at any time by replying "STOP" to any text message that you receive from MarketBeat or by visiting our mailing preferences page. Read our full terms of service and privacy policy.
Skip Chart & View Institutional Buying and Selling Data

NYMT Institutional Buying and Selling by Quarter

New York Mortgage Trust Major Shareholders & Ownership History

Reporting DateMajor Shareholder NameShares HeldMarket Value% of PortfolioQuarterly Change in SharesOwnership in CompanyDetails
1/9/2026 SG Americas Securities LLC18,047$132K0.0%+49.3%0.020%
1/1/2026JPMorgan Chase & Co.641,981$4.48M0.0%-8.4%0.711%
11/17/2025 Kestra Private Wealth Services LLC12,275$86K0.0%-13.4%0.014%
11/17/2025Caxton Associates LLP69,947$488K0.0%+124.0%0.077%
11/17/2025Dark Forest Capital Management LP20,642$144K0.0%-8.7%0.023%
11/17/2025Verition Fund Management LLC48,890$341K0.0%+149.6%0.054%
11/17/2025Polymer Capital Management US LLC50,009$349K0.0%-17.6%0.055%
11/17/2025Mercer Global Advisors Inc. ADV25,555$178K0.0%+60.7%0.028%
11/17/2025National Bank of Canada FI17,795$124K0.0%+5,734.4%0.020%
11/17/2025Millennium Management LLC151,121$1.05M0.0%+72.8%0.167%
11/17/2025MIRAE ASSET GLOBAL ETFS HOLDINGS Ltd.2,198,126$15.32M0.0%+7.8%2.434%
11/17/2025Bank of America Corp DE425,486$2.97M0.0%-6.4%0.471%
11/17/2025Ameriprise Financial Inc.206,713$1.45M0.0%-9.7%0.229%
11/14/2025Zacks Investment Management16,956$118K0.0%N/A0.019%
11/14/2025 Brooklyn Investment Group63,222$441K0.0%+1,356.4%0.070%
11/14/2025UBS AM A Distinct Business Unit of UBS Asset Management Americas LLC157,855$1.10M0.0%+47.8%0.175%
11/14/2025Two Sigma Investments LP417,157$2.91M0.0%+24.6%0.462%
11/14/2025Squarepoint Ops LLC14,824$103K0.0%N/A0.016%
11/14/2025Comerica Bank30,712$214K0.0%-19.1%0.034%
11/13/2025Invesco Ltd.2,930,292$20.42M0.0%-6.7%3.245%
11/13/2025Sei Investments Co.106,739$744K0.0%+5.6%0.118%
11/13/2025 UBS Group AG294,464$2.05M0.0%-44.1%0.326%
11/13/2025BNP Paribas Financial Markets21,136$147K0.0%-17.0%0.023%
11/13/2025Van ECK Associates Corp777,356$5.42M0.0%+3.3%0.861%
11/13/2025FourThought Financial Partners LLC45,012$314K0.0%N/A0.050%
11/13/2025Legal & General Group Plc222,077$1.55M0.0%-12.6%0.246%
11/13/2025Russell Investments Group Ltd.158,358$1.10M0.0%+5,479.9%0.175%
11/12/2025Barclays PLC214,570$1.50M0.0%+32.5%0.238%
11/12/2025 Teachers Retirement System of The State of Kentucky25,899$180K0.0%-13.8%0.029%
11/12/2025Victory Capital Management Inc.37,345$260K0.0%+95.9%0.041%
11/10/2025Ameritas Investment Partners Inc.7,109$50K0.0%-21.4%0.008%
11/10/2025OneDigital Investment Advisors LLC10,353$72K0.0%N/A0.011%
11/7/2025Vanguard Group Inc.6,100,710$42.52M0.0%-2.3%6.755%
11/7/2025JPMorgan Chase & Co.641,981$4.48M0.0%-8.4%0.711%
11/7/2025PNC Financial Services Group Inc.6,190$43K0.0%-21.5%0.007%
11/6/2025Public Sector Pension Investment Board327,587$2.28M0.0%+6.2%0.363%
11/6/2025Cibc World Market Inc.50,244$350K0.0%+318.7%0.056%
11/6/2025Rhumbline Advisers251,401$1.75M0.0%-4.7%0.278%
11/6/2025 ProShare Advisors LLC16,009$112K0.0%-16.2%0.018%
11/4/2025Penserra Capital Management LLC165,368$1.15M0.0%+3.5%0.183%
11/4/2025State of Wyoming53,497$373K0.0%-44.8%0.059%
11/4/2025 Principal Financial Group Inc.405,511$2.83M0.0%-9.4%0.449%
11/4/2025 Thrivent Financial for Lutherans60,595$422K0.0%-8.7%0.067%
10/30/2025Bailard Inc.16,200$113K0.0%N/A0.018%
10/29/2025 Maryland State Retirement & Pension System12,075$84K0.0%-55.6%0.013%
10/28/2025 Wolverine Asset Management LLC466,699$3.25M0.0%+44.4%0.517%
10/28/2025Campbell & CO Investment Adviser LLC80,767$563K0.0%-38.4%0.089%
10/24/2025 Oregon Public Employees Retirement Fund18,952$132K0.0%-8.2%0.021%
10/24/2025 State of Alaska Department of Revenue42,263$294K0.0%-21.3%0.047%
10/23/2025 Nisa Investment Advisors LLC14,136$102K0.0%-13.8%0.016%
10/22/2025 Louisiana State Employees Retirement System38,600$269K0.0%-8.5%0.043%
10/20/2025 Allspring Global Investments Holdings LLC3,602,435$25.11M0.0%-5.7%3.989%
10/17/2025 Range Financial Group LLC133,804$933K0.3%+673.3%0.148%
10/15/2025CWM LLC6,716$47K0.0%+122.9%0.007%
10/15/2025 Atwood & Palmer Inc.4,000$28K0.0%N/A0.004%
10/14/2025 Yousif Capital Management LLC26,347$184K0.0%-22.1%0.029%
10/9/2025Voya Investment Management LLC40,299$281K0.0%-25.6%0.045%
10/2/2025 GAMMA Investing LLC7,625$53K0.0%+75.4%0.008%
8/19/2025 B. Riley Wealth Advisors Inc.12,107$81K0.0%N/A0.013%
8/19/2025State of Wyoming96,857$649K0.1%+113.0%0.107%
8/18/2025Caxton Associates LLP31,233$209K0.0%-53.1%0.035%
8/16/2025Public Sector Pension Investment Board308,495$2.07M0.0%+7.4%0.342%
8/15/2025Tower Research Capital LLC TRC 8,036$54K0.0%+197.0%0.009%
8/15/2025State of Tennessee Department of Treasury37,095$249K0.0%-10.9%0.041%
8/15/2025Vident Advisory LLC34,971$234K0.0%N/A0.039%
8/15/2025Engineers Gate Manager LP50,281$337K0.0%-3.1%0.056%
8/15/2025BNP Paribas Financial Markets25,466$171K0.0%+305.6%0.028%
8/15/2025Bank of America Corp DE454,478$3.05M0.0%-8.0%0.503%
8/15/2025Ameriprise Financial Inc.228,979$1.54M0.0%+8.9%0.254%
8/14/2025Jane Street Group LLC17,890$120K0.0%-89.1%0.020%
8/14/2025Raymond James Financial Inc.7,547$51K0.0%N/A0.008%
8/14/2025Bayesian Capital Management LP10,099$68K0.0%N/A0.011%
8/14/2025Quantinno Capital Management LP43,427$291K0.0%+39.4%0.048%
8/14/2025MIRAE ASSET GLOBAL ETFS HOLDINGS Ltd.2,039,453$13.66M0.0%+9.6%2.258%
8/13/2025Invesco Ltd.3,141,804$21.05M0.0%+14.8%3.479%
8/13/2025 PharVision Advisers LLC16,328$109K0.2%N/A0.018%
8/13/2025Arrowstreet Capital Limited Partnership398,109$2.67M0.0%+41.0%0.441%
8/13/2025Quantbot Technologies LP34,737$233K0.0%N/A0.038%
8/12/2025Prudential Financial Inc.96,630$647K0.0%+5.8%0.107%
8/12/2025Segall Bryant & Hamill LLC334,242$2.24M0.0%N/A0.370%
8/12/2025Rhumbline Advisers263,937$1.77M0.0%+1.4%0.292%
8/12/2025Franklin Resources Inc.60,155$403K0.0%N/A0.067%
8/12/2025Legal & General Group Plc254,050$1.70M0.0%+1.0%0.281%
8/12/2025JPMorgan Chase & Co.700,494$4.69M0.0%+370.5%0.776%
8/12/2025Swiss National Bank164,330$1.10M0.0%-6.3%0.182%
8/12/2025Dynamic Technology Lab Private Ltd11,590$78K0.0%N/A0.013%
8/8/2025Intech Investment Management LLC88,754$595K0.0%+7.8%0.098%
8/8/2025 Commonwealth of Pennsylvania Public School Empls Retrmt SYS23,183$155K0.0%+7.0%0.026%
8/8/2025Geode Capital Management LLC2,248,925$15.07M0.0%-0.2%2.490%
8/7/2025Allworth Financial LP5,431$36K0.0%+538.9%0.006%
8/7/2025 ProShare Advisors LLC19,113$128K0.0%-10.5%0.021%
8/7/2025Campbell & CO Investment Adviser LLC131,035$878K0.1%N/A0.145%
8/7/2025Los Angeles Capital Management LLC220,727$1.48M0.0%+19.6%0.244%
8/6/2025Fox Run Management L.L.C.35,001$235K0.0%N/A0.039%
8/6/2025Penserra Capital Management LLC159,765$1.07M0.0%-14.6%0.177%
8/5/2025Bank of Montreal Can17,091$115K0.0%+17.3%0.019%
8/4/2025 Wolverine Asset Management LLC323,150$2.17M0.0%-29.6%0.358%
7/31/2025 Nisa Investment Advisors LLC16,405$118K0.0%-24.8%0.018%
7/29/2025Mutual of America Capital Management LLC11,600$78K0.0%-12.1%0.013%
7/25/2025 Allspring Global Investments Holdings LLC3,821,703$25.84M0.0%+1.3%4.232%


NYMT Institutional Ownership - Frequently Asked Questions

Who are the largest shareholders of NYMT shares?

During the previous two years, 142 institutional investors and hedge funds held shares of New York Mortgage Trust. The most heavily invested institutionals were Vanguard Group Inc. ($42.52M), Allspring Global Investments Holdings LLC ($25.11M), State Street Corp ($22.82M), Invesco Ltd. ($20.42M), MIRAE ASSET GLOBAL ETFS HOLDINGS Ltd. ($15.32M), Geode Capital Management LLC ($15.07M), and Charles Schwab Investment Management Inc. ($7.65M).Learn more on New York Mortgage Trust's institutional investors.

What percentage of New York Mortgage Trust's stock is owned by institutional investors?

54.89% of New York Mortgage Trust's stock is owned by institutional investors. Learn more on NYMT's institutional investor holdings.

Which institutional investors have been buying New York Mortgage Trust's stock?

Of the 111 institutional investors that purchased New York Mortgage Trust's stock in the last 24 months, the following investors and hedge funds have bought the highest volume of shares: Invesco Ltd. ($946.56K), MIRAE ASSET GLOBAL ETFS HOLDINGS Ltd. ($918.72K), EMG Holdings L.P. ($610.97K), JPMorgan Chase & Co. ($610.01K), Waterfall Asset Management LLC ($591.60K), Jane Street Group LLC ($339.47K), and Segall Bryant & Hamill LLC ($334.24K).

How much institutional buying is happening at New York Mortgage Trust?

Institutional investors have bought a total of 4,521,316 shares in the last 24 months. This purchase volume represents approximately $30.54M in transactions.

Which of New York Mortgage Trust's major shareholders have been selling company stock?

Of the 42 institutional investors that sold New York Mortgage Trust's stock in the last 24 months, the following investors and hedge funds have sold the highest volume of shares: Goldman Sachs Group Inc. ($719.22K), Invesco Ltd. ($681.70K), Jane Street Group LLC ($461.54K), Vanguard Group Inc. ($349.17K), Wolverine Asset Management LLC ($308.15K), UBS Group AG ($232.76K), and Allspring Global Investments Holdings LLC ($219.27K).

How much institutional selling is happening at New York Mortgage Trust?

Institutional investors have sold a total of 3,601,812 shares in the last 24 months. This volume of shares sold represents approximately $24.22M in transactions.



This page (NASDAQ:NYMT) was last updated on 5/7/2026 by MarketBeat.com Staff.
From Our Partners